sensor_id;sensor_type;location;lat;lon;timestamp;temperature;humidity
22996;DHT22;11664;49.774;8.650;2023-08-07T00:00:27;13.00;99.90
22996;DHT22;11664;49.774;8.650;2023-08-07T00:02:53;13.10;99.90
22996;DHT22;11664;49.774;8.650;2023-08-07T00:05:18;13.00;99.90
22996;DHT22;11664;49.774;8.650;2023-08-07T00:07:44;13.00;99.90
22996;DHT22;11664;49.774;8.650;2023-08-07T00:10:10;13.00;99.90
22996;DHT22;11664;49.774;8.650;2023-08-07T00:12:35;13.00;99.90
22996;DHT22;11664;49.774;8.650;2023-08-07T00:15:02;12.90;99.90
22996;DHT22;11664;49.774;8.650;2023-08-07T00:17:28;12.90;99.90
22996;DHT22;11664;49.774;8.650;2023-08-07T00:19:53;13.00;99.90
22996;DHT22;11664;49.774;8.650;2023-08-07T00:22:25;13.00;99.90
22996;DHT22;11664;49.774;8.650;2023-08-07T00:24:54;13.00;99.90
22996;DHT22;11664;49.774;8.650;2023-08-07T00:27:25;13.00;99.90
22996;DHT22;11664;49.774;8.650;2023-08-07T00:29:51;13.00;99.90
22996;DHT22;11664;49.774;8.650;2023-08-07T00:32:16;13.00;99.90
22996;DHT22;11664;49.774;8.650;2023-08-07T00:34:42;13.00;99.90
22996;DHT22;11664;49.774;8.650;2023-08-07T00:37:08;12.90;99.90
22996;DHT22;11664;49.774;8.650;2023-08-07T00:39:39;12.90;99.90
22996;DHT22;11664;49.774;8.650;2023-08-07T00:42:08;12.90;99.90
22996;DHT22;11664;49.774;8.650;2023-08-07T00:44:36;12.90;99.90
22996;DHT22;11664;49.774;8.650;2023-08-07T00:47:03;12.90;99.90
22996;DHT22;11664;49.774;8.650;2023-08-07T00:49:38;12.90;99.90
22996;DHT22;11664;49.774;8.650;2023-08-07T00:52:07;12.90;99.90
22996;DHT22;11664;49.774;8.650;2023-08-07T00:54:33;12.90;99.90
22996;DHT22;11664;49.774;8.650;2023-08-07T00:57:09;12.80;99.90
22996;DHT22;11664;49.774;8.650;2023-08-07T00:59:35;12.80;99.90
22996;DHT22;11664;49.774;8.650;2023-08-07T01:02:04;12.90;99.90
22996;DHT22;11664;49.774;8.650;2023-08-07T01:04:30;12.90;99.90
22996;DHT22;11664;49.774;8.650;2023-08-07T01:07:02;12.80;99.90
22996;DHT22;11664;49.774;8.650;2023-08-07T01:09:28;12.90;99.90
22996;DHT22;11664;49.774;8.650;2023-08-07T01:15:02;12.80;99.90
22996;DHT22;11664;49.774;8.650;2023-08-07T01:17:32;12.80;99.90
22996;DHT22;11664;49.774;8.650;2023-08-07T01:19:59;12.80;99.90
22996;DHT22;11664;49.774;8.650;2023-08-07T01:22:28;12.90;99.90
22996;DHT22;11664;49.774;8.650;2023-08-07T01:25:00;12.90;99.90
22996;DHT22;11664;49.774;8.650;2023-08-07T01:27:36;12.90;99.90
22996;DHT22;11664;49.774;8.650;2023-08-07T01:30:09;12.90;99.90
22996;DHT22;11664;49.774;8.650;2023-08-07T01:35:49;12.90;99.90
22996;DHT22;11664;49.774;8.650;2023-08-07T01:38:29;12.90;99.90
22996;DHT22;11664;49.774;8.650;2023-08-07T01:40:58;12.90;99.90
22996;DHT22;11664;49.774;8.650;2023-08-07T01:43:35;12.80;99.90
22996;DHT22;11664;49.774;8.650;2023-08-07T01:46:04;12.80;99.90
22996;DHT22;11664;49.774;8.650;2023-08-07T01:48:34;12.70;99.90
22996;DHT22;11664;49.774;8.650;2023-08-07T01:51:06;12.70;99.90
22996;DHT22;11664;49.774;8.650;2023-08-07T01:53:44;12.70;99.90
22996;DHT22;11664;49.774;8.650;2023-08-07T01:56:10;12.70;99.90
22996;DHT22;11664;49.774;8.650;2023-08-07T01:58:36;12.70;99.90
22996;DHT22;11664;49.774;8.650;2023-08-07T02:01:19;12.70;99.90
22996;DHT22;11664;49.774;8.650;2023-08-07T02:03:57;12.80;99.90
22996;DHT22;11664;49.774;8.650;2023-08-07T02:06:29;12.70;99.90
22996;DHT22;11664;49.774;8.650;2023-08-07T02:09:04;12.80;99.90
22996;DHT22;11664;49.774;8.650;2023-08-07T02:11:39;12.80;99.90
22996;DHT22;11664;49.774;8.650;2023-08-07T02:14:11;12.70;99.90
22996;DHT22;11664;49.774;8.650;2023-08-07T02:16:36;12.70;99.90
22996;DHT22;11664;49.774;8.650;2023-08-07T02:19:11;12.80;99.90
22996;DHT22;11664;49.774;8.650;2023-08-07T02:21:36;12.80;99.90
22996;DHT22;11664;49.774;8.650;2023-08-07T02:24:05;12.80;99.90
22996;DHT22;11664;49.774;8.650;2023-08-07T02:26:36;12.80;99.90
22996;DHT22;11664;49.774;8.650;2023-08-07T02:29:02;12.80;99.90
22996;DHT22;11664;49.774;8.650;2023-08-07T02:31:29;12.80;99.90
22996;DHT22;11664;49.774;8.650;2023-08-07T02:34:01;12.80;99.90
22996;DHT22;11664;49.774;8.650;2023-08-07T02:36:32;12.80;99.90
22996;DHT22;11664;49.774;8.650;2023-08-07T02:38:58;12.80;99.90
22996;DHT22;11664;49.774;8.650;2023-08-07T02:41:23;12.80;99.90
22996;DHT22;11664;49.774;8.650;2023-08-07T02:43:49;12.90;99.90
22996;DHT22;11664;49.774;8.650;2023-08-07T02:46:14;12.80;99.90
22996;DHT22;11664;49.774;8.650;2023-08-07T02:48:58;12.80;99.90
22996;DHT22;11664;49.774;8.650;2023-08-07T02:51:24;12.80;99.90
22996;DHT22;11664;49.774;8.650;2023-08-07T02:53:49;12.80;99.90
22996;DHT22;11664;49.774;8.650;2023-08-07T02:56:15;12.80;99.90
22996;DHT22;11664;49.774;8.650;2023-08-07T02:58:43;12.80;99.90
22996;DHT22;11664;49.774;8.650;2023-08-07T03:01:09;12.80;99.90
22996;DHT22;11664;49.774;8.650;2023-08-07T03:03:43;12.80;99.90
22996;DHT22;11664;49.774;8.650;2023-08-07T03:06:09;12.80;99.90
22996;DHT22;11664;49.774;8.650;2023-08-07T03:08:37;12.80;99.90
22996;DHT22;11664;49.774;8.650;2023-08-07T03:11:03;12.90;99.90
22996;DHT22;11664;49.774;8.650;2023-08-07T03:13:28;12.80;99.90
22996;DHT22;11664;49.774;8.650;2023-08-07T03:16:01;12.80;99.90
22996;DHT22;11664;49.774;8.650;2023-08-07T03:18:33;12.80;99.90
22996;DHT22;11664;49.774;8.650;2023-08-07T03:21:10;12.80;99.90
22996;DHT22;11664;49.774;8.650;2023-08-07T03:23:36;12.90;99.90
22996;DHT22;11664;49.774;8.650;2023-08-07T03:26:14;12.90;99.90
22996;DHT22;11664;49.774;8.650;2023-08-07T03:28:43;12.80;99.90
22996;DHT22;11664;49.774;8.650;2023-08-07T03:31:15;12.90;99.90
22996;DHT22;11664;49.774;8.650;2023-08-07T03:33:46;12.90;99.90
22996;DHT22;11664;49.774;8.650;2023-08-07T03:36:15;12.90;99.90
22996;DHT22;11664;49.774;8.650;2023-08-07T03:38:40;12.90;99.90
22996;DHT22;11664;49.774;8.650;2023-08-07T03:41:12;12.90;99.90
22996;DHT22;11664;49.774;8.650;2023-08-07T03:43:44;12.90;99.90
22996;DHT22;11664;49.774;8.650;2023-08-07T03:46:15;12.90;99.90
22996;DHT22;11664;49.774;8.650;2023-08-07T03:48:41;13.00;99.90
22996;DHT22;11664;49.774;8.650;2023-08-07T03:51:07;12.90;99.90
22996;DHT22;11664;49.774;8.650;2023-08-07T03:53:40;13.00;99.90
22996;DHT22;11664;49.774;8.650;2023-08-07T03:56:08;13.00;99.90
22996;DHT22;11664;49.774;8.650;2023-08-07T03:58:37;12.80;99.90
22996;DHT22;11664;49.774;8.650;2023-08-07T04:01:08;12.90;99.90
22996;DHT22;11664;49.774;8.650;2023-08-07T04:03:35;13.00;99.90
22996;DHT22;11664;49.774;8.650;2023-08-07T04:06:01;13.00;99.90
22996;DHT22;11664;49.774;8.650;2023-08-07T04:08:45;13.10;99.90
22996;DHT22;11664;49.774;8.650;2023-08-07T04:11:10;13.00;99.90
22996;DHT22;11664;49.774;8.650;2023-08-07T04:13:36;13.10;99.90
22996;DHT22;11664;49.774;8.650;2023-08-07T04:16:07;13.00;99.90
22996;DHT22;11664;49.774;8.650;2023-08-07T04:18:33;13.10;99.90
22996;DHT22;11664;49.774;8.650;2023-08-07T04:21:05;13.00;99.90
22996;DHT22;11664;49.774;8.650;2023-08-07T04:23:36;13.00;99.90
22996;DHT22;11664;49.774;8.650;2023-08-07T04:26:02;13.00;99.90
22996;DHT22;11664;49.774;8.650;2023-08-07T04:28:31;13.10;99.90
22996;DHT22;11664;49.774;8.650;2023-08-07T04:30:57;13.10;99.90
22996;DHT22;11664;49.774;8.650;2023-08-07T04:33:28;13.10;99.90
22996;DHT22;11664;49.774;8.650;2023-08-07T04:35:57;13.10;99.90
22996;DHT22;11664;49.774;8.650;2023-08-07T04:38:29;13.00;99.90
22996;DHT22;11664;49.774;8.650;2023-08-07T04:40:57;13.00;99.90
22996;DHT22;11664;49.774;8.650;2023-08-07T04:43:29;13.10;99.90
22996;DHT22;11664;49.774;8.650;2023-08-07T04:46:01;13.20;99.90
22996;DHT22;11664;49.774;8.650;2023-08-07T04:48:27;13.20;99.90
22996;DHT22;11664;49.774;8.650;2023-08-07T04:51:11;13.10;99.90
22996;DHT22;11664;49.774;8.650;2023-08-07T04:53:36;13.10;99.90
22996;DHT22;11664;49.774;8.650;2023-08-07T04:56:17;13.10;99.90
22996;DHT22;11664;49.774;8.650;2023-08-07T04:58:42;13.20;99.90
22996;DHT22;11664;49.774;8.650;2023-08-07T05:01:08;13.20;99.90
22996;DHT22;11664;49.774;8.650;2023-08-07T05:03:37;13.20;99.90
22996;DHT22;11664;49.774;8.650;2023-08-07T05:06:05;13.20;99.90
22996;DHT22;11664;49.774;8.650;2023-08-07T05:08:37;13.30;99.90
22996;DHT22;11664;49.774;8.650;2023-08-07T05:11:06;13.30;99.90
22996;DHT22;11664;49.774;8.650;2023-08-07T05:13:31;13.30;99.90
22996;DHT22;11664;49.774;8.650;2023-08-07T05:16:03;13.30;99.90
22996;DHT22;11664;49.774;8.650;2023-08-07T05:18:32;13.30;99.90
22996;DHT22;11664;49.774;8.650;2023-08-07T05:21:06;13.20;99.90
22996;DHT22;11664;49.774;8.650;2023-08-07T05:23:34;13.30;99.90
22996;DHT22;11664;49.774;8.650;2023-08-07T05:26:02;13.20;99.90
22996;DHT22;11664;49.774;8.650;2023-08-07T05:28:46;13.20;99.90
22996;DHT22;11664;49.774;8.650;2023-08-07T05:31:12;13.20;99.90
22996;DHT22;11664;49.774;8.650;2023-08-07T05:33:38;13.20;99.90
22996;DHT22;11664;49.774;8.650;2023-08-07T05:36:09;13.20;99.90
22996;DHT22;11664;49.774;8.650;2023-08-07T05:38:36;13.20;99.90
22996;DHT22;11664;49.774;8.650;2023-08-07T05:41:04;13.20;99.90
22996;DHT22;11664;49.774;8.650;2023-08-07T05:43:36;13.20;99.90
22996;DHT22;11664;49.774;8.650;2023-08-07T05:46:08;13.20;99.90
22996;DHT22;11664;49.774;8.650;2023-08-07T05:48:36;13.10;99.90
22996;DHT22;11664;49.774;8.650;2023-08-07T05:51:14;13.20;99.90
22996;DHT22;11664;49.774;8.650;2023-08-07T05:57:01;13.20;99.90
22996;DHT22;11664;49.774;8.650;2023-08-07T05:59:42;13.10;99.90
22996;DHT22;11664;49.774;8.650;2023-08-07T06:02:11;13.10;99.90
22996;DHT22;11664;49.774;8.650;2023-08-07T06:04:49;13.00;99.90
22996;DHT22;11664;49.774;8.650;2023-08-07T06:07:24;13.10;99.90
22996;DHT22;11664;49.774;8.650;2023-08-07T06:09:53;13.10;99.90
22996;DHT22;11664;49.774;8.650;2023-08-07T06:12:18;13.20;99.90
22996;DHT22;11664;49.774;8.650;2023-08-07T06:14:47;13.10;99.90
22996;DHT22;11664;49.774;8.650;2023-08-07T06:17:15;13.10;99.90
22996;DHT22;11664;49.774;8.650;2023-08-07T06:19:50;13.00;99.90
22996;DHT22;11664;49.774;8.650;2023-08-07T06:22:18;13.10;99.90
22996;DHT22;11664;49.774;8.650;2023-08-07T06:24:50;13.00;99.90
22996;DHT22;11664;49.774;8.650;2023-08-07T06:27:15;13.10;99.90
22996;DHT22;11664;49.774;8.650;2023-08-07T06:29:41;13.10;99.90
22996;DHT22;11664;49.774;8.650;2023-08-07T06:32:07;13.10;99.90
22996;DHT22;11664;49.774;8.650;2023-08-07T06:34:32;13.10;99.90
22996;DHT22;11664;49.774;8.650;2023-08-07T06:37:04;13.10;99.90
22996;DHT22;11664;49.774;8.650;2023-08-07T06:39:30;13.10;99.90
22996;DHT22;11664;49.774;8.650;2023-08-07T06:41:56;13.00;99.90
22996;DHT22;11664;49.774;8.650;2023-08-07T06:44:22;13.00;99.90
22996;DHT22;11664;49.774;8.650;2023-08-07T06:46:50;12.90;99.90
22996;DHT22;11664;49.774;8.650;2023-08-07T06:49:27;12.90;99.90
22996;DHT22;11664;49.774;8.650;2023-08-07T06:51:53;12.90;99.90
22996;DHT22;11664;49.774;8.650;2023-08-07T06:54:25;12.90;99.90
22996;DHT22;11664;49.774;8.650;2023-08-07T06:56:50;12.90;99.90
22996;DHT22;11664;49.774;8.650;2023-08-07T06:59:28;12.90;99.90
22996;DHT22;11664;49.774;8.650;2023-08-07T07:01:57;12.80;99.90
22996;DHT22;11664;49.774;8.650;2023-08-07T07:04:25;12.90;99.90
22996;DHT22;11664;49.774;8.650;2023-08-07T07:06:51;13.00;99.90
22996;DHT22;11664;49.774;8.650;2023-08-07T07:09:23;12.90;99.90
22996;DHT22;11664;49.774;8.650;2023-08-07T07:11:48;12.90;99.90
22996;DHT22;11664;49.774;8.650;2023-08-07T07:14:14;12.90;99.90
22996;DHT22;11664;49.774;8.650;2023-08-07T07:16:51;12.90;99.90
22996;DHT22;11664;49.774;8.650;2023-08-07T07:19:29;12.90;99.90
22996;DHT22;11664;49.774;8.650;2023-08-07T07:22:07;13.00;99.90
22996;DHT22;11664;49.774;8.650;2023-08-07T07:24:33;13.00;99.90
22996;DHT22;11664;49.774;8.650;2023-08-07T07:27:04;13.00;99.90
22996;DHT22;11664;49.774;8.650;2023-08-07T07:29:30;12.90;99.90
22996;DHT22;11664;49.774;8.650;2023-08-07T07:31:55;12.90;99.90
22996;DHT22;11664;49.774;8.650;2023-08-07T07:34:30;12.90;99.90
22996;DHT22;11664;49.774;8.650;2023-08-07T07:36:58;13.00;99.90
22996;DHT22;11664;49.774;8.650;2023-08-07T07:39:34;13.00;99.90
22996;DHT22;11664;49.774;8.650;2023-08-07T07:42:06;13.00;99.90
22996;DHT22;11664;49.774;8.650;2023-08-07T07:44:32;13.00;99.90
22996;DHT22;11664;49.774;8.650;2023-08-07T07:47:02;13.00;99.90
22996;DHT22;11664;49.774;8.650;2023-08-07T07:49:37;13.10;99.90
22996;DHT22;11664;49.774;8.650;2023-08-07T07:52:05;13.10;99.90
22996;DHT22;11664;49.774;8.650;2023-08-07T07:54:31;13.10;99.90
22996;DHT22;11664;49.774;8.650;2023-08-07T07:56:57;13.20;99.90
22996;DHT22;11664;49.774;8.650;2023-08-07T07:59:25;13.20;99.90
22996;DHT22;11664;49.774;8.650;2023-08-07T08:01:51;13.30;99.90
22996;DHT22;11664;49.774;8.650;2023-08-07T08:04:16;13.20;99.90
22996;DHT22;11664;49.774;8.650;2023-08-07T08:06:42;13.30;99.90
22996;DHT22;11664;49.774;8.650;2023-08-07T08:09:07;13.20;99.90
22996;DHT22;11664;49.774;8.650;2023-08-07T08:11:41;13.30;99.90
22996;DHT22;11664;49.774;8.650;2023-08-07T08:14:09;13.20;99.90
22996;DHT22;11664;49.774;8.650;2023-08-07T08:16:41;13.30;99.90
22996;DHT22;11664;49.774;8.650;2023-08-07T08:19:09;13.40;99.90
22996;DHT22;11664;49.774;8.650;2023-08-07T08:21:38;13.40;99.90
22996;DHT22;11664;49.774;8.650;2023-08-07T08:24:07;13.40;99.90
22996;DHT22;11664;49.774;8.650;2023-08-07T08:26:36;13.40;99.90
22996;DHT22;11664;49.774;8.650;2023-08-07T08:29:01;13.40;99.90
22996;DHT22;11664;49.774;8.650;2023-08-07T08:31:33;13.30;99.90
22996;DHT22;11664;49.774;8.650;2023-08-07T08:33:59;13.40;99.90
22996;DHT22;11664;49.774;8.650;2023-08-07T08:36:24;13.40;99.90
22996;DHT22;11664;49.774;8.650;2023-08-07T08:39:05;13.40;99.90
22996;DHT22;11664;49.774;8.650;2023-08-07T08:41:37;13.40;99.90
22996;DHT22;11664;49.774;8.650;2023-08-07T08:44:12;13.40;99.90
22996;DHT22;11664;49.774;8.650;2023-08-07T08:46:51;13.40;99.90
22996;DHT22;11664;49.774;8.650;2023-08-07T08:49:30;13.40;99.90
22996;DHT22;11664;49.774;8.650;2023-08-07T08:52:02;13.50;99.90
22996;DHT22;11664;49.774;8.650;2023-08-07T08:54:28;13.50;99.90
22996;DHT22;11664;49.774;8.650;2023-08-07T08:56:55;13.50;99.90
22996;DHT22;11664;49.774;8.650;2023-08-07T08:59:34;13.50;99.90
22996;DHT22;11664;49.774;8.650;2023-08-07T09:02:00;13.40;99.90
22996;DHT22;11664;49.774;8.650;2023-08-07T09:04:32;13.40;99.90
22996;DHT22;11664;49.774;8.650;2023-08-07T09:06:58;13.40;99.90
22996;DHT22;11664;49.774;8.650;2023-08-07T09:09:28;13.40;99.90
22996;DHT22;11664;49.774;8.650;2023-08-07T09:11:57;13.40;99.90
22996;DHT22;11664;49.774;8.650;2023-08-07T09:14:30;13.40;99.90
22996;DHT22;11664;49.774;8.650;2023-08-07T09:17:05;13.40;99.90
22996;DHT22;11664;49.774;8.650;2023-08-07T09:19:39;13.40;99.90
22996;DHT22;11664;49.774;8.650;2023-08-07T09:22:19;13.40;99.90
22996;DHT22;11664;49.774;8.650;2023-08-07T09:24:45;13.40;99.90
22996;DHT22;11664;49.774;8.650;2023-08-07T09:27:14;13.50;99.90
22996;DHT22;11664;49.774;8.650;2023-08-07T09:29:40;13.50;99.90
22996;DHT22;11664;49.774;8.650;2023-08-07T09:32:13;13.60;99.90
22996;DHT22;11664;49.774;8.650;2023-08-07T09:34:41;13.50;99.90
22996;DHT22;11664;49.774;8.650;2023-08-07T09:37:13;13.60;99.90
22996;DHT22;11664;49.774;8.650;2023-08-07T09:39:40;13.70;99.90
22996;DHT22;11664;49.774;8.650;2023-08-07T09:42:16;13.70;99.90
22996;DHT22;11664;49.774;8.650;2023-08-07T09:44:42;13.70;99.90
22996;DHT22;11664;49.774;8.650;2023-08-07T09:47:15;13.70;99.90
22996;DHT22;11664;49.774;8.650;2023-08-07T09:49:42;13.70;99.90
22996;DHT22;11664;49.774;8.650;2023-08-07T09:52:14;13.80;99.90
22996;DHT22;11664;49.774;8.650;2023-08-07T09:54:41;13.80;99.90
22996;DHT22;11664;49.774;8.650;2023-08-07T09:57:13;13.80;99.90
22996;DHT22;11664;49.774;8.650;2023-08-07T09:59:40;13.90;99.90
22996;DHT22;11664;49.774;8.650;2023-08-07T10:02:16;13.80;99.90
22996;DHT22;11664;49.774;8.650;2023-08-07T10:04:44;13.80;99.90
22996;DHT22;11664;49.774;8.650;2023-08-07T10:07:11;13.60;99.90
22996;DHT22;11664;49.774;8.650;2023-08-07T10:09:38;13.50;99.90
22996;DHT22;11664;49.774;8.650;2023-08-07T10:12:08;13.50;99.90
22996;DHT22;11664;49.774;8.650;2023-08-07T10:14:40;13.50;99.90
22996;DHT22;11664;49.774;8.650;2023-08-07T10:17:07;13.60;99.90
22996;DHT22;11664;49.774;8.650;2023-08-07T10:19:39;13.50;99.90
22996;DHT22;11664;49.774;8.650;2023-08-07T10:22:11;13.50;99.90
22996;DHT22;11664;49.774;8.650;2023-08-07T10:24:40;13.60;99.90
22996;DHT22;11664;49.774;8.650;2023-08-07T10:27:20;13.60;99.90
22996;DHT22;11664;49.774;8.650;2023-08-07T10:29:47;13.50;99.90
22996;DHT22;11664;49.774;8.650;2023-08-07T10:32:15;13.50;99.90
22996;DHT22;11664;49.774;8.650;2023-08-07T10:34:58;13.40;99.90
22996;DHT22;11664;49.774;8.650;2023-08-07T10:40:06;13.50;99.90
22996;DHT22;11664;49.774;8.650;2023-08-07T10:43:11;13.50;99.90
22996;DHT22;11664;49.774;8.650;2023-08-07T10:45:40;13.50;99.90
22996;DHT22;11664;49.774;8.650;2023-08-07T10:48:21;13.60;99.90
22996;DHT22;11664;49.774;8.650;2023-08-07T10:50:56;13.60;99.90
22996;DHT22;11664;49.774;8.650;2023-08-07T10:53:48;13.70;99.90
22996;DHT22;11664;49.774;8.650;2023-08-07T10:56:35;13.70;99.90
22996;DHT22;11664;49.774;8.650;2023-08-07T10:59:11;13.80;99.90
22996;DHT22;11664;49.774;8.650;2023-08-07T11:04:11;13.90;99.90
22996;DHT22;11664;49.774;8.650;2023-08-07T11:06:41;13.80;99.90
22996;DHT22;11664;49.774;8.650;2023-08-07T11:09:08;13.90;99.90
22996;DHT22;11664;49.774;8.650;2023-08-07T11:11:47;14.00;99.90
22996;DHT22;11664;49.774;8.650;2023-08-07T11:14:16;14.10;99.90
22996;DHT22;11664;49.774;8.650;2023-08-07T11:16:46;14.10;99.90
22996;DHT22;11664;49.774;8.650;2023-08-07T11:19:13;14.10;99.90
22996;DHT22;11664;49.774;8.650;2023-08-07T11:21:45;14.20;99.90
22996;DHT22;11664;49.774;8.650;2023-08-07T11:24:15;14.30;99.90
22996;DHT22;11664;49.774;8.650;2023-08-07T11:26:50;14.40;99.90
22996;DHT22;11664;49.774;8.650;2023-08-07T11:29:18;14.50;99.90
22996;DHT22;11664;49.774;8.650;2023-08-07T11:32:03;14.60;99.90
22996;DHT22;11664;49.774;8.650;2023-08-07T11:34:29;15.00;99.90
22996;DHT22;11664;49.774;8.650;2023-08-07T11:37:03;15.20;99.90
22996;DHT22;11664;49.774;8.650;2023-08-07T11:39:32;15.50;99.90
22996;DHT22;11664;49.774;8.650;2023-08-07T11:42:08;15.40;99.90
22996;DHT22;11664;49.774;8.650;2023-08-07T11:44:41;15.40;99.90
22996;DHT22;11664;49.774;8.650;2023-08-07T11:47:07;15.50;99.90
22996;DHT22;11664;49.774;8.650;2023-08-07T11:49:38;15.60;99.90
22996;DHT22;11664;49.774;8.650;2023-08-07T11:52:04;15.50;99.90
22996;DHT22;11664;49.774;8.650;2023-08-07T11:54:30;15.70;99.90
22996;DHT22;11664;49.774;8.650;2023-08-07T11:56:56;16.00;99.90
22996;DHT22;11664;49.774;8.650;2023-08-07T11:59:21;15.90;99.90
22996;DHT22;11664;49.774;8.650;2023-08-07T12:01:47;15.90;99.90
22996;DHT22;11664;49.774;8.650;2023-08-07T12:04:12;15.80;99.90
22996;DHT22;11664;49.774;8.650;2023-08-07T12:06:56;15.80;99.90
22996;DHT22;11664;49.774;8.650;2023-08-07T12:09:22;15.70;99.90
22996;DHT22;11664;49.774;8.650;2023-08-07T12:11:47;15.80;99.90
22996;DHT22;11664;49.774;8.650;2023-08-07T12:14:16;15.80;99.90
22996;DHT22;11664;49.774;8.650;2023-08-07T12:17:04;15.60;99.90
22996;DHT22;11664;49.774;8.650;2023-08-07T12:19:39;15.50;99.90
22996;DHT22;11664;49.774;8.650;2023-08-07T12:22:10;15.20;99.90
22996;DHT22;11664;49.774;8.650;2023-08-07T12:24:36;15.10;99.90
22996;DHT22;11664;49.774;8.650;2023-08-07T12:27:10;14.90;99.90
22996;DHT22;11664;49.774;8.650;2023-08-07T12:29:36;15.00;99.90
22996;DHT22;11664;49.774;8.650;2023-08-07T12:32:08;14.90;99.90
22996;DHT22;11664;49.774;8.650;2023-08-07T12:34:35;15.00;99.90
22996;DHT22;11664;49.774;8.650;2023-08-07T12:37:07;15.00;99.90
22996;DHT22;11664;49.774;8.650;2023-08-07T12:39:37;15.00;99.90
22996;DHT22;11664;49.774;8.650;2023-08-07T12:42:03;15.10;99.90
22996;DHT22;11664;49.774;8.650;2023-08-07T12:46:58;15.10;99.90
22996;DHT22;11664;49.774;8.650;2023-08-07T12:59:37;16.00;99.90
22996;DHT22;11664;49.774;8.650;2023-08-07T13:02:12;15.90;99.90
22996;DHT22;11664;49.774;8.650;2023-08-07T13:04:37;16.10;99.90
22996;DHT22;11664;49.774;8.650;2023-08-07T13:07:21;16.10;99.90
22996;DHT22;11664;49.774;8.650;2023-08-07T13:09:47;16.10;99.90
22996;DHT22;11664;49.774;8.650;2023-08-07T13:12:12;16.00;99.90
22996;DHT22;11664;49.774;8.650;2023-08-07T13:14:38;16.10;99.90
22996;DHT22;11664;49.774;8.650;2023-08-07T13:17:06;16.30;99.90
22996;DHT22;11664;49.774;8.650;2023-08-07T13:19:31;16.50;99.90
22996;DHT22;11664;49.774;8.650;2023-08-07T13:25:21;17.10;99.90
22996;DHT22;11664;49.774;8.650;2023-08-07T13:27:47;17.70;99.90
22996;DHT22;11664;49.774;8.650;2023-08-07T13:30:13;18.20;99.90
22996;DHT22;11664;49.774;8.650;2023-08-07T13:32:41;18.50;99.90
22996;DHT22;11664;49.774;8.650;2023-08-07T13:35:16;18.70;99.90
22996;DHT22;11664;49.774;8.650;2023-08-07T13:37:42;19.10;99.90
22996;DHT22;11664;49.774;8.650;2023-08-07T13:40:13;19.50;99.90
22996;DHT22;11664;49.774;8.650;2023-08-07T13:42:46;19.10;99.90
22996;DHT22;11664;49.774;8.650;2023-08-07T13:45:12;19.60;99.90
22996;DHT22;11664;49.774;8.650;2023-08-07T13:47:45;19.20;99.90
22996;DHT22;11664;49.774;8.650;2023-08-07T13:50:10;18.80;99.90
22996;DHT22;11664;49.774;8.650;2023-08-07T13:52:37;19.00;99.90
22996;DHT22;11664;49.774;8.650;2023-08-07T13:55:06;18.80;99.90
22996;DHT22;11664;49.774;8.650;2023-08-07T13:57:34;18.20;99.90
22996;DHT22;11664;49.774;8.650;2023-08-07T14:00:00;18.00;99.90
22996;DHT22;11664;49.774;8.650;2023-08-07T14:02:31;18.30;99.90
22996;DHT22;11664;49.774;8.650;2023-08-07T14:05:06;18.80;99.90
22996;DHT22;11664;49.774;8.650;2023-08-07T14:07:31;19.30;99.90
22996;DHT22;11664;49.774;8.650;2023-08-07T14:09:57;19.80;99.90
22996;DHT22;11664;49.774;8.650;2023-08-07T14:12:32;19.70;99.90
22996;DHT22;11664;49.774;8.650;2023-08-07T14:14:57;20.00;99.90
22996;DHT22;11664;49.774;8.650;2023-08-07T14:17:29;20.30;99.90
22996;DHT22;11664;49.774;8.650;2023-08-07T14:20:00;21.90;99.90
22996;DHT22;11664;49.774;8.650;2023-08-07T14:22:26;21.40;99.90
22996;DHT22;11664;49.774;8.650;2023-08-07T14:24:54;20.90;99.90
22996;DHT22;11664;49.774;8.650;2023-08-07T14:27:29;20.70;99.90
22996;DHT22;11664;49.774;8.650;2023-08-07T14:29:55;19.30;99.90
22996;DHT22;11664;49.774;8.650;2023-08-07T14:32:26;19.60;99.90
22996;DHT22;11664;49.774;8.650;2023-08-07T14:34:58;22.50;99.90
22996;DHT22;11664;49.774;8.650;2023-08-07T14:37:26;22.90;99.90
22996;DHT22;11664;49.774;8.650;2023-08-07T14:39:58;22.40;99.90
22996;DHT22;11664;49.774;8.650;2023-08-07T14:42:29;21.70;99.90
22996;DHT22;11664;49.774;8.650;2023-08-07T14:44:58;23.30;99.90
22996;DHT22;11664;49.774;8.650;2023-08-07T14:47:39;23.10;99.90
22996;DHT22;11664;49.774;8.650;2023-08-07T14:50:05;22.50;99.90
22996;DHT22;11664;49.774;8.650;2023-08-07T14:52:36;24.80;99.90
22996;DHT22;11664;49.774;8.650;2023-08-07T14:55:03;23.90;99.90
22996;DHT22;11664;49.774;8.650;2023-08-07T14:57:28;24.40;99.90
22996;DHT22;11664;49.774;8.650;2023-08-07T14:59:54;24.00;99.90
22996;DHT22;11664;49.774;8.650;2023-08-07T15:02:19;23.50;99.90
22996;DHT22;11664;49.774;8.650;2023-08-07T15:04:45;21.70;99.90
22996;DHT22;11664;49.774;8.650;2023-08-07T15:07:16;20.80;99.90
22996;DHT22;11664;49.774;8.650;2023-08-07T15:09:42;20.40;99.90
22996;DHT22;11664;49.774;8.650;2023-08-07T15:12:08;20.20;99.90
22996;DHT22;11664;49.774;8.650;2023-08-07T15:14:37;20.10;99.90
22996;DHT22;11664;49.774;8.650;2023-08-07T15:17:08;20.60;99.90
22996;DHT22;11664;49.774;8.650;2023-08-07T15:19:34;21.50;99.90
22996;DHT22;11664;49.774;8.650;2023-08-07T15:21:59;21.30;99.90
22996;DHT22;11664;49.774;8.650;2023-08-07T15:24:37;21.30;99.90
22996;DHT22;11664;49.774;8.650;2023-08-07T15:27:09;21.10;99.90
22996;DHT22;11664;49.774;8.650;2023-08-07T15:29:53;21.10;99.90
22996;DHT22;11664;49.774;8.650;2023-08-07T15:32:18;22.80;99.90
22996;DHT22;11664;49.774;8.650;2023-08-07T15:34:45;24.30;99.90
22996;DHT22;11664;49.774;8.650;2023-08-07T15:37:14;24.30;99.90
22996;DHT22;11664;49.774;8.650;2023-08-07T15:39:39;23.90;99.90
22996;DHT22;11664;49.774;8.650;2023-08-07T15:42:05;25.60;97.10
22996;DHT22;11664;49.774;8.650;2023-08-07T15:44:31;25.90;94.60
22996;DHT22;11664;49.774;8.650;2023-08-07T15:47:02;24.70;93.50
22996;DHT22;11664;49.774;8.650;2023-08-07T15:49:32;21.50;96.40
22996;DHT22;11664;49.774;8.650;2023-08-07T15:52:07;20.40;99.40
22996;DHT22;11664;49.774;8.650;2023-08-07T15:54:33;20.30;99.90
22996;DHT22;11664;49.774;8.650;2023-08-07T15:57:01;20.10;99.90
22996;DHT22;11664;49.774;8.650;2023-08-07T15:59:33;19.80;99.90
22996;DHT22;11664;49.774;8.650;2023-08-07T16:02:10;19.70;99.90
22996;DHT22;11664;49.774;8.650;2023-08-07T16:04:36;19.80;99.90
22996;DHT22;11664;49.774;8.650;2023-08-07T16:07:08;19.80;99.90
22996;DHT22;11664;49.774;8.650;2023-08-07T16:09:34;20.10;99.90
22996;DHT22;11664;49.774;8.650;2023-08-07T16:12:00;20.90;99.90
22996;DHT22;11664;49.774;8.650;2023-08-07T16:14:28;21.90;98.00
22996;DHT22;11664;49.774;8.650;2023-08-07T16:16:59;22.00;95.50